createdAt,value
2023-04-22T00:00:18.852Z,7.73
2023-04-22T00:02:48.646Z,7.95
2023-04-22T00:05:20.615Z,8.14
2023-04-22T00:07:50.275Z,8.12
2023-04-22T00:10:20.703Z,8.08
2023-04-22T00:12:49.894Z,8.04
2023-04-22T00:15:23.225Z,8.02
2023-04-22T00:17:54.750Z,7.75
2023-04-22T00:20:23.197Z,7.97
2023-04-22T00:22:51.509Z,7.95
2023-04-22T00:25:22.648Z,6.64
2023-04-22T00:27:53.931Z,7.24
2023-04-22T00:30:23.257Z,7.87
2023-04-22T00:32:54.504Z,7.57
2023-04-22T00:35:25.007Z,7.82
2023-04-22T00:37:54.901Z,7.71
2023-04-22T00:40:23.980Z,7.61
2023-04-22T00:42:54.100Z,7.83
2023-04-22T00:45:25.298Z,7.48
2023-04-22T00:47:57.158Z,7.74
2023-04-22T00:50:25.625Z,7.73
2023-04-22T00:52:56.199Z,7.73
2023-04-22T00:55:26.112Z,7.72
2023-04-22T00:57:56.480Z,7.68
2023-04-22T01:00:28.228Z,7.69
2023-04-22T01:02:59.182Z,7.68
2023-04-22T01:05:32.651Z,7.63
2023-04-22T01:08:02.684Z,7.37
2023-04-22T01:10:31.485Z,7.47
2023-04-22T01:13:03.998Z,7.31
2023-04-22T01:15:32.300Z,7.53
2023-04-22T01:18:08.166Z,7.03
2023-04-22T01:20:43.072Z,7.51
2023-04-22T01:23:18.838Z,7.50
2023-04-22T01:25:53.111Z,6.83
2023-04-22T01:28:24.638Z,7.50
2023-04-22T01:30:55.382Z,7.52
2023-04-22T01:33:26.161Z,7.59
2023-04-22T01:35:55.329Z,7.61
2023-04-22T01:38:25.105Z,7.65
2023-04-22T01:40:57.984Z,7.59
2023-04-22T01:43:28.949Z,7.54
2023-04-22T01:45:57.288Z,7.87
2023-04-22T01:48:27.293Z,7.57
2023-04-22T01:50:57.211Z,7.94
2023-04-22T01:53:31.498Z,7.84
2023-04-22T01:56:02.283Z,8.00
2023-04-22T01:58:31.368Z,8.04
2023-04-22T02:01:01.707Z,8.13
2023-04-22T02:03:30.498Z,8.26
2023-04-22T02:06:00.674Z,8.38
2023-04-22T02:08:32.700Z,8.52
2023-04-22T02:11:03.870Z,8.62
2023-04-22T02:13:37.683Z,8.74
2023-04-22T02:16:08.656Z,8.82
2023-04-22T02:18:37.002Z,8.91
2023-04-22T02:21:05.539Z,9.00
2023-04-22T02:23:36.128Z,9.09
2023-04-22T02:26:06.033Z,9.14
2023-04-22T02:28:35.871Z,9.21
2023-04-22T02:31:06.884Z,9.15
2023-04-22T02:33:38.239Z,9.31
2023-04-22T02:36:09.650Z,9.37
2023-04-22T02:38:39.788Z,9.41
2023-04-22T02:41:13.799Z,9.37
2023-04-22T02:43:46.535Z,9.40
2023-04-22T02:46:17.392Z,9.37
2023-04-22T02:48:45.715Z,9.58
2023-04-22T02:51:15.219Z,9.48
2023-04-22T02:53:44.920Z,9.65
2023-04-22T02:56:13.563Z,9.45
2023-04-22T02:58:45.074Z,9.71
2023-04-22T03:01:13.368Z,9.73
2023-04-22T03:03:41.887Z,9.75
2023-04-22T03:06:12.969Z,9.75
2023-04-22T03:08:41.621Z,9.62
2023-04-22T03:11:13.344Z,9.77
2023-04-22T03:13:44.297Z,9.78
2023-04-22T03:16:12.773Z,9.82
2023-04-22T03:18:41.886Z,9.85
2023-04-22T03:21:13.444Z,8.57
2023-04-22T03:23:43.877Z,9.86
2023-04-22T03:26:14.959Z,9.32
2023-04-22T03:28:45.981Z,9.89
2023-04-22T03:31:18.190Z,9.92
2023-04-22T03:33:47.920Z,9.79
2023-04-22T03:36:16.512Z,9.95
2023-04-22T03:38:49.047Z,9.93
2023-04-22T03:41:20.876Z,9.96
2023-04-22T03:43:51.192Z,10.00
2023-04-22T03:46:19.623Z,10.00
2023-04-22T03:48:50.430Z,9.44
2023-04-22T03:51:20.790Z,10.01
2023-04-22T03:53:50.940Z,10.01
2023-04-22T03:56:20.604Z,10.01
2023-04-22T03:58:50.217Z,10.02
2023-04-22T04:01:23.008Z,10.02
2023-04-22T04:03:51.455Z,9.86
2023-04-22T04:06:21.764Z,9.69
2023-04-22T04:08:50.070Z,10.03
2023-04-22T04:11:21.241Z,10.04
2023-04-22T04:13:52.830Z,10.03
2023-04-22T04:16:21.153Z,10.02
2023-04-22T04:18:52.315Z,10.02
2023-04-22T04:21:22.312Z,9.85
2023-04-22T04:23:53.051Z,9.77
2023-04-22T04:26:22.495Z,10.04
2023-04-22T04:28:54.816Z,10.09
2023-04-22T04:31:25.102Z,10.12
2023-04-22T04:33:55.949Z,10.14
2023-04-22T04:36:27.829Z,10.10
2023-04-22T04:38:59.115Z,10.08
2023-04-22T04:41:28.283Z,10.10
2023-04-22T04:44:02.528Z,10.09
2023-04-22T04:46:32.248Z,10.12
2023-04-22T04:49:00.540Z,10.13
2023-04-22T04:51:30.949Z,10.13
2023-04-22T04:54:01.512Z,10.19
2023-04-22T04:56:31.050Z,10.20
2023-04-22T05:02:00.233Z,10.17
2023-04-22T05:04:28.937Z,10.30
2023-04-22T05:06:57.846Z,10.30
2023-04-22T05:09:27.817Z,10.31
2023-04-22T05:11:56.306Z,10.38
2023-04-22T05:14:26.369Z,10.42
2023-04-22T05:16:59.148Z,10.48
2023-04-22T05:19:28.037Z,10.26
2023-04-22T05:21:58.033Z,9.79
2023-04-22T05:24:26.491Z,10.48
2023-04-22T05:26:57.432Z,10.47
2023-04-22T05:29:31.491Z,10.52
2023-04-22T05:31:59.922Z,10.53
2023-04-22T05:34:29.402Z,10.52
2023-04-22T05:36:59.760Z,10.51
2023-04-22T05:39:29.895Z,10.57
2023-04-22T05:41:59.778Z,10.19
2023-04-22T05:44:31.422Z,10.67
2023-04-22T05:47:04.337Z,10.69
2023-04-22T05:49:32.623Z,10.21
2023-04-22T05:52:02.654Z,10.80
2023-04-22T05:54:30.902Z,10.39
2023-04-22T05:57:04.111Z,10.88
2023-04-22T05:59:33.847Z,10.95
2023-04-22T06:02:02.185Z,10.64
2023-04-22T06:04:35.362Z,11.13
2023-04-22T06:07:07.973Z,10.89
2023-04-22T06:09:37.293Z,11.17
2023-04-22T06:12:06.341Z,11.30
2023-04-22T06:14:38.233Z,11.36
2023-04-22T06:17:08.069Z,11.38
2023-04-22T06:19:36.527Z,11.38
2023-04-22T06:22:07.071Z,11.46
2023-04-22T06:24:35.409Z,11.50
2023-04-22T06:27:07.488Z,11.52
2023-04-22T06:29:40.598Z,11.58
2023-04-22T06:32:11.040Z,11.63
2023-04-22T06:34:39.906Z,11.22
2023-04-22T06:37:13.264Z,11.78
2023-04-22T06:39:41.880Z,11.78
2023-04-22T06:42:12.153Z,11.90
2023-04-22T06:44:41.992Z,11.13
2023-04-22T06:47:12.207Z,11.42
2023-04-22T06:49:40.838Z,11.85
2023-04-22T06:52:14.211Z,12.11
2023-04-22T06:54:42.481Z,12.07
2023-04-22T06:57:13.245Z,12.25
2023-04-22T06:59:47.298Z,12.31
2023-04-22T07:02:16.145Z,12.15
2023-04-22T07:04:46.739Z,12.44
2023-04-22T07:07:15.527Z,12.44
2023-04-22T07:09:45.729Z,12.24
2023-04-22T07:12:16.276Z,12.48
2023-04-22T07:14:46.641Z,12.72
2023-04-22T07:17:16.889Z,12.76
2023-04-22T07:19:45.337Z,12.70
2023-04-22T07:22:15.677Z,12.43
2023-04-22T07:24:46.387Z,13.00
2023-04-22T07:27:19.353Z,13.03
2023-04-22T07:29:52.995Z,12.82
2023-04-22T07:32:21.122Z,13.02
2023-04-22T07:34:53.464Z,13.12
2023-04-22T07:37:24.850Z,12.72
2023-04-22T07:39:53.462Z,13.20
2023-04-22T07:42:22.196Z,13.25
2023-04-22T07:44:53.801Z,12.98
2023-04-22T07:47:22.139Z,13.38
2023-04-22T07:49:50.617Z,13.45
2023-04-22T07:52:21.760Z,13.42
2023-04-22T07:54:50.088Z,13.51
2023-04-22T07:57:23.734Z,13.62
2023-04-22T07:59:53.309Z,13.60
2023-04-22T08:02:22.180Z,13.68
2023-04-22T08:04:52.808Z,13.81
2023-04-22T08:09:54.364Z,13.88
2023-04-22T08:12:23.026Z,13.91
2023-04-22T08:14:52.742Z,14.00
2023-04-22T08:17:24.069Z,14.02
2023-04-22T08:19:54.237Z,14.09
2023-04-22T08:22:26.149Z,14.11
2023-04-22T08:24:54.863Z,14.22
2023-04-22T08:27:26.341Z,14.23
2023-04-22T08:29:59.210Z,13.98
2023-04-22T08:32:29.228Z,14.33
2023-04-22T08:35:04.429Z,14.36
2023-04-22T08:37:35.961Z,14.42
2023-04-22T08:40:04.982Z,14.46
2023-04-22T08:42:35.825Z,14.52
2023-04-22T08:45:06.632Z,14.56
2023-04-22T08:47:38.239Z,14.61
2023-04-22T08:50:12.353Z,14.55
2023-04-22T08:52:43.960Z,14.73
2023-04-22T08:55:13.973Z,14.72
2023-04-22T08:57:43.195Z,14.52
2023-04-22T09:00:20.942Z,14.67
2023-04-22T09:02:56.468Z,14.57
2023-04-22T09:05:29.318Z,14.91
2023-04-22T09:07:58.105Z,15.01
2023-04-22T09:10:29.324Z,15.09
2023-04-22T09:13:01.071Z,15.18
2023-04-22T09:15:31.422Z,15.24
2023-04-22T09:18:01.602Z,15.26
2023-04-22T09:20:32.542Z,15.12
2023-04-22T09:23:07.350Z,15.41
2023-04-22T09:25:39.051Z,14.94
2023-04-22T09:28:08.486Z,15.53
2023-04-22T09:30:44.508Z,15.43
2023-04-22T09:33:15.979Z,15.52
2023-04-22T09:35:47.878Z,15.48
2023-04-22T09:38:16.825Z,15.89
2023-04-22T09:40:53.194Z,16.00
2023-04-22T09:43:21.577Z,16.10
2023-04-22T09:45:54.155Z,16.04
2023-04-22T09:48:26.674Z,15.12
2023-04-22T09:50:56.213Z,16.39
2023-04-22T09:53:24.722Z,16.52
2023-04-22T09:55:59.815Z,16.64
2023-04-22T09:58:28.212Z,16.70
2023-04-22T10:01:02.659Z,16.81
2023-04-22T10:03:32.008Z,16.73
2023-04-22T10:06:03.399Z,16.94
2023-04-22T10:08:33.444Z,17.04
2023-04-22T10:14:24.198Z,17.30
2023-04-22T10:17:00.034Z,17.33
2023-04-22T10:19:31.168Z,17.35
2023-04-22T10:22:04.169Z,17.00
2023-04-22T10:24:37.017Z,16.92
2023-04-22T10:27:11.274Z,17.45
2023-04-22T10:29:43.685Z,17.53
2023-04-22T10:32:30.383Z,17.63
2023-04-22T10:35:15.846Z,17.64
2023-04-22T10:37:46.109Z,17.33
2023-04-22T10:40:20.937Z,17.60
2023-04-22T10:42:58.025Z,17.55
2023-04-22T10:45:29.049Z,17.61
2023-04-22T10:48:05.147Z,17.67
2023-04-22T10:50:35.737Z,17.64
2023-04-22T10:53:39.504Z,17.69
2023-04-22T10:56:21.374Z,17.48
2023-04-22T10:58:52.948Z,17.74
2023-04-22T11:01:23.476Z,17.74
2023-04-22T11:03:56.533Z,17.85
2023-04-22T11:06:27.983Z,17.19
2023-04-22T11:12:37.121Z,17.93
2023-04-22T11:15:12.457Z,17.94
2023-04-22T11:17:45.459Z,17.89
2023-04-22T11:20:17.824Z,17.82
2023-04-22T11:22:50.787Z,18.18
2023-04-22T11:25:21.207Z,18.22
2023-04-22T11:27:54.201Z,18.31
2023-04-22T11:30:28.153Z,18.00
2023-04-22T11:33:04.023Z,18.53
2023-04-22T11:35:42.779Z,18.60
2023-04-22T11:38:13.426Z,18.68
2023-04-22T11:40:46.749Z,18.76
2023-04-22T11:43:17.544Z,18.82
2023-04-22T11:45:48.225Z,18.71
2023-04-22T11:48:17.116Z,18.44
2023-04-22T11:50:51.615Z,18.92
2023-04-22T11:53:23.452Z,18.87
2023-04-22T11:55:53.719Z,18.87
2023-04-22T11:58:29.211Z,18.85
2023-04-22T12:01:02.269Z,18.79
2023-04-22T12:06:27.456Z,18.77
2023-04-22T12:08:56.670Z,18.67
2023-04-22T12:11:27.700Z,18.83
2023-04-22T12:13:56.354Z,18.87
2023-04-22T12:16:27.376Z,18.95
2023-04-22T12:18:56.789Z,19.04
2023-04-22T12:21:33.308Z,18.99
2023-04-22T12:24:07.516Z,19.22
2023-04-22T12:26:38.346Z,19.34
2023-04-22T12:29:09.249Z,19.51
2023-04-22T12:31:38.823Z,19.66
2023-04-22T12:34:09.204Z,19.76
2023-04-22T12:36:41.879Z,19.77
2023-04-22T12:39:15.549Z,19.79
2023-04-22T12:41:45.919Z,19.67
2023-04-22T12:44:16.530Z,19.84
2023-04-22T12:46:49.365Z,19.63
2023-04-22T12:49:17.749Z,19.89
2023-04-22T12:51:52.436Z,19.94
2023-04-22T12:54:21.168Z,19.89
2023-04-22T12:56:55.159Z,19.97
2023-04-22T12:59:23.545Z,20.27
2023-04-22T13:01:54.366Z,20.44
2023-04-22T13:04:24.739Z,20.57
2023-04-22T13:06:57.393Z,20.72
2023-04-22T13:09:29.126Z,20.51
2023-04-22T13:11:58.418Z,20.97
2023-04-22T13:14:27.624Z,21.10
2023-04-22T13:17:00.322Z,21.26
2023-04-22T13:19:29.856Z,21.29
2023-04-22T13:22:04.236Z,21.39
2023-04-22T13:24:32.490Z,21.45
2023-04-22T13:27:04.826Z,21.47
2023-04-22T13:29:36.357Z,21.40
2023-04-22T13:32:08.013Z,21.30
2023-04-22T13:34:41.292Z,21.42
2023-04-22T13:37:11.037Z,21.48
2023-04-22T13:39:39.683Z,21.10
2023-04-22T13:42:10.192Z,21.25
2023-04-22T13:44:38.478Z,21.68
2023-04-22T13:47:09.033Z,21.80
2023-04-22T13:49:37.402Z,21.84
2023-04-22T13:52:07.858Z,21.90
2023-04-22T13:54:38.150Z,22.03
2023-04-22T14:00:02.349Z,22.22
2023-04-22T14:02:36.021Z,22.36
2023-04-22T14:05:05.341Z,22.45
2023-04-22T14:07:33.611Z,22.50
2023-04-22T14:10:08.316Z,22.44
2023-04-22T14:15:31.130Z,22.31
2023-04-22T14:17:59.545Z,22.32
2023-04-22T14:20:27.838Z,22.18
2023-04-22T14:22:58.282Z,22.27
2023-04-22T14:25:28.046Z,22.32
2023-04-22T14:28:01.654Z,22.47
2023-04-22T14:30:30.110Z,22.55
2023-04-22T14:32:58.808Z,22.73
2023-04-22T14:35:29.288Z,22.73
2023-04-22T14:37:57.558Z,22.50
2023-04-22T14:43:23.901Z,22.25
2023-04-22T14:45:52.452Z,22.20
2023-04-22T14:48:23.070Z,22.10
2023-04-22T14:50:54.289Z,21.89
2023-04-22T14:53:22.825Z,21.84
2023-04-22T14:55:55.204Z,21.01
2023-04-22T14:58:24.168Z,21.80
2023-04-22T15:00:57.261Z,21.78
2023-04-22T15:03:26.012Z,21.81
2023-04-22T15:06:00.381Z,21.87
2023-04-22T15:08:28.719Z,22.09
2023-04-22T15:11:01.401Z,22.40
2023-04-22T15:13:31.971Z,22.67
2023-04-22T15:16:02.398Z,22.88
2023-04-22T15:18:32.929Z,22.94
2023-04-22T15:21:03.499Z,22.87
2023-04-22T15:23:32.350Z,22.48
2023-04-22T15:26:09.272Z,22.51
2023-04-22T15:28:42.277Z,22.33
2023-04-22T15:31:10.778Z,22.08
2023-04-22T15:33:39.094Z,21.87
2023-04-22T15:36:12.815Z,22.08
2023-04-22T15:38:44.565Z,21.87
2023-04-22T15:41:14.683Z,21.93
2023-04-22T15:43:47.395Z,21.80
2023-04-22T15:46:15.803Z,21.59
2023-04-22T15:48:50.249Z,21.22
2023-04-22T15:51:20.294Z,21.30
2023-04-22T15:53:48.906Z,21.21
2023-04-22T15:56:23.220Z,21.14
2023-04-22T15:58:51.859Z,20.79
2023-04-22T16:01:23.818Z,20.93
2023-04-22T16:03:55.943Z,20.72
2023-04-22T16:06:26.684Z,19.83
2023-04-22T16:08:57.468Z,20.12
2023-04-22T16:11:30.454Z,20.63
2023-04-22T16:14:01.370Z,20.63
2023-04-22T16:16:32.475Z,20.59
2023-04-22T16:19:00.858Z,20.52
2023-04-22T16:21:30.238Z,20.46
2023-04-22T16:24:02.174Z,20.37
2023-04-22T16:26:35.208Z,19.79
2023-04-22T16:29:04.791Z,20.19
2023-04-22T16:31:35.560Z,19.89
2023-04-22T16:34:03.997Z,19.79
2023-04-22T16:36:35.041Z,19.94
2023-04-22T16:39:03.915Z,19.73
2023-04-22T16:41:39.052Z,19.69
2023-04-22T16:44:07.375Z,19.51
2023-04-22T16:46:40.359Z,18.53
2023-04-22T16:49:11.145Z,18.10
2023-04-22T16:51:42.146Z,19.28
2023-04-22T16:54:10.423Z,19.27
2023-04-22T16:56:42.346Z,18.86
2023-04-22T16:59:14.524Z,19.07
2023-04-22T17:01:45.379Z,18.76
2023-04-22T17:04:13.964Z,18.95
2023-04-22T17:06:42.320Z,18.90
2023-04-22T17:09:13.095Z,18.83
2023-04-22T17:11:43.008Z,18.76
2023-04-22T17:14:16.177Z,18.32
2023-04-22T17:16:44.613Z,18.61
2023-04-22T17:19:15.546Z,18.65
2023-04-22T17:21:44.246Z,17.97
2023-04-22T17:24:14.608Z,18.54
2023-04-22T17:26:45.678Z,18.35
2023-04-22T17:29:17.067Z,18.44
2023-04-22T17:31:51.034Z,18.32
2023-04-22T17:34:21.385Z,18.24
2023-04-22T17:36:50.812Z,18.13
2023-04-22T17:39:19.566Z,17.97
2023-04-22T17:41:51.569Z,17.69
2023-04-22T17:47:13.404Z,17.67
2023-04-22T17:49:42.380Z,17.89
2023-04-22T17:52:11.578Z,17.53
2023-04-22T17:54:43.214Z,17.67
2023-04-22T17:57:15.408Z,17.59
2023-04-22T17:59:45.173Z,17.48
2023-04-22T18:02:17.025Z,17.43
2023-04-22T18:04:47.413Z,17.43
2023-04-22T18:07:15.815Z,17.41
2023-04-22T18:09:46.465Z,16.78
2023-04-22T18:12:16.423Z,16.55
2023-04-22T18:14:46.960Z,17.06
2023-04-22T18:17:22.515Z,17.27
2023-04-22T18:19:57.971Z,17.22
2023-04-22T18:22:39.344Z,17.16
2023-04-22T18:25:09.336Z,17.08
2023-04-22T18:27:42.107Z,16.93
2023-04-22T18:33:10.365Z,16.62
2023-04-22T18:35:41.579Z,16.89
2023-04-22T18:38:09.878Z,16.90
2023-04-22T18:40:41.437Z,16.92
2023-04-22T18:43:14.306Z,16.56
2023-04-22T18:45:42.752Z,16.85
2023-04-22T18:48:13.280Z,16.84
2023-04-22T18:50:42.291Z,16.85
2023-04-22T18:53:12.918Z,16.64
2023-04-22T18:55:41.814Z,16.78
2023-04-22T19:01:05.541Z,16.77
2023-04-22T19:03:39.994Z,16.74
2023-04-22T19:06:10.774Z,16.74
2023-04-22T19:08:44.194Z,16.73
2023-04-22T19:11:12.475Z,16.69
2023-04-22T19:13:42.199Z,16.49
2023-04-22T19:16:15.722Z,16.68
2023-04-22T19:18:44.822Z,16.54
2023-04-22T19:21:15.523Z,16.45
2023-04-22T19:23:46.162Z,16.04
2023-04-22T19:26:46.157Z,16.50
2023-04-22T19:29:17.426Z,16.43
2023-04-22T19:31:48.515Z,16.32
2023-04-22T19:34:18.337Z,15.85
2023-04-22T19:36:46.882Z,15.37
2023-04-22T19:39:17.318Z,16.27
2023-04-22T19:41:45.672Z,16.07
2023-04-22T19:44:15.805Z,15.81
2023-04-22T19:46:48.819Z,16.27
2023-04-22T19:49:20.793Z,16.24
2023-04-22T19:54:47.229Z,16.12
2023-04-22T19:57:19.433Z,16.13
2023-04-22T20:00:39.901Z,16.09
2023-04-22T20:03:17.420Z,16.02
2023-04-22T20:05:48.830Z,15.99
2023-04-22T20:08:20.544Z,15.96
2023-04-22T20:10:52.442Z,15.92
2023-04-22T20:13:23.941Z,15.99
2023-04-22T20:15:56.117Z,15.78
2023-04-22T20:18:28.325Z,15.89
2023-04-22T20:21:00.078Z,15.55
2023-04-22T20:29:18.941Z,15.64
2023-04-22T20:31:49.664Z,15.51
2023-04-22T20:34:20.154Z,15.36
2023-04-22T20:36:52.448Z,15.58
2023-04-22T20:39:23.827Z,15.50
2023-04-22T20:41:57.580Z,15.50
2023-04-22T20:44:28.575Z,15.42
2023-04-22T20:46:58.381Z,15.34
2023-04-22T20:52:23.489Z,15.12
2023-04-22T20:54:57.802Z,14.72
2023-04-22T20:57:28.511Z,15.14
2023-04-22T20:59:59.540Z,14.91
2023-04-22T21:02:28.196Z,14.64
2023-04-22T21:05:01.201Z,13.76
2023-04-22T21:07:32.074Z,14.84
2023-04-22T21:10:03.539Z,14.17
2023-04-22T21:12:33.530Z,14.12
2023-04-22T21:15:05.398Z,14.46
2023-04-22T21:17:34.898Z,14.75
2023-04-22T21:23:01.386Z,14.83
2023-04-22T21:25:37.403Z,14.75
2023-04-22T21:28:07.670Z,14.72
2023-04-22T21:30:41.342Z,14.56
2023-04-22T21:33:11.657Z,14.56
2023-04-22T21:35:42.931Z,14.70
2023-04-22T21:38:11.298Z,14.37
2023-04-22T21:40:41.886Z,14.65
2023-04-22T21:43:12.605Z,14.63
2023-04-22T21:45:43.133Z,14.49
2023-04-22T21:48:11.721Z,14.59
2023-04-22T21:50:41.717Z,14.65
2023-04-22T21:53:12.631Z,14.14
2023-04-22T21:55:41.125Z,14.42
2023-04-22T21:58:13.534Z,14.36
2023-04-22T22:00:43.302Z,14.24
2023-04-22T22:03:12.895Z,14.60
2023-04-22T22:05:45.854Z,14.60
2023-04-22T22:08:17.898Z,14.25
2023-04-22T22:10:49.559Z,14.56
2023-04-22T22:13:17.834Z,14.05
2023-04-22T22:18:41.989Z,14.33
2023-04-22T22:21:11.657Z,14.61
2023-04-22T22:23:40.266Z,14.49
2023-04-22T22:26:11.369Z,14.49
2023-04-22T22:28:47.237Z,14.21
2023-04-22T22:31:16.066Z,14.36
2023-04-22T22:33:47.123Z,14.29
2023-04-22T22:39:16.468Z,14.19
2023-04-22T22:41:48.719Z,14.17
2023-04-22T22:47:11.844Z,14.04
2023-04-22T22:49:40.840Z,14.02
2023-04-22T22:52:15.719Z,13.34
2023-04-22T22:54:46.140Z,13.94
2023-04-22T23:00:11.831Z,13.61
2023-04-22T23:11:23.577Z,13.79
2023-04-22T23:13:52.080Z,13.76
2023-04-22T23:16:28.923Z,13.73
2023-04-22T23:18:57.727Z,13.69
2023-04-22T23:27:16.636Z,13.61
2023-04-22T23:29:49.884Z,13.58
2023-04-22T23:32:21.531Z,13.53
2023-04-22T23:37:49.514Z,13.42
2023-04-22T23:40:21.647Z,13.38
2023-04-22T23:42:50.471Z,13.35
2023-04-22T23:45:18.945Z,13.36
2023-04-22T23:47:50.039Z,13.23
2023-04-22T23:50:19.214Z,12.76
2023-04-22T23:52:52.509Z,13.10
2023-04-22T23:55:23.300Z,13.28
2023-04-22T23:58:20.747Z,13.23
